sensor_id;sensor_type;location;lat;lon;timestamp;temperature;humidity
26103;DHT22;69760;49.380;8.998;2023-11-22T00:00:40;6.70;99.90
26103;DHT22;69760;49.380;8.998;2023-11-22T00:03:05;6.70;99.90
26103;DHT22;69760;49.380;8.998;2023-11-22T00:05:31;6.70;99.90
26103;DHT22;69760;49.380;8.998;2023-11-22T00:07:57;6.80;99.90
26103;DHT22;69760;49.380;8.998;2023-11-22T00:10:22;6.80;99.90
26103;DHT22;69760;49.380;8.998;2023-11-22T00:12:49;6.80;99.90
26103;DHT22;69760;49.380;8.998;2023-11-22T00:15:14;6.80;99.90
26103;DHT22;69760;49.380;8.998;2023-11-22T00:17:44;6.80;99.90
26103;DHT22;69760;49.380;8.998;2023-11-22T00:20:10;6.80;99.90
26103;DHT22;69760;49.380;8.998;2023-11-22T00:22:35;6.90;99.90
26103;DHT22;69760;49.380;8.998;2023-11-22T00:25:01;6.80;99.90
26103;DHT22;69760;49.380;8.998;2023-11-22T00:27:30;6.80;99.90
26103;DHT22;69760;49.380;8.998;2023-11-22T00:29:57;6.80;99.90
26103;DHT22;69760;49.380;8.998;2023-11-22T00:32:23;6.80;99.90
26103;DHT22;69760;49.380;8.998;2023-11-22T00:34:49;6.70;99.90
26103;DHT22;69760;49.380;8.998;2023-11-22T00:37:14;6.70;99.90
26103;DHT22;69760;49.380;8.998;2023-11-22T00:39:41;6.60;99.90
26103;DHT22;69760;49.380;8.998;2023-11-22T00:42:10;6.60;99.90
26103;DHT22;69760;49.380;8.998;2023-11-22T00:44:35;6.70;99.90
26103;DHT22;69760;49.380;8.998;2023-11-22T00:47:04;6.80;99.90
26103;DHT22;69760;49.380;8.998;2023-11-22T00:49:30;6.70;99.90
26103;DHT22;69760;49.380;8.998;2023-11-22T00:51:55;6.60;99.90
26103;DHT22;69760;49.380;8.998;2023-11-22T00:54:22;6.60;99.90
26103;DHT22;69760;49.380;8.998;2023-11-22T00:56:47;6.50;99.90
26103;DHT22;69760;49.380;8.998;2023-11-22T00:59:13;6.50;99.90
26103;DHT22;69760;49.380;8.998;2023-11-22T01:01:40;6.40;99.90
26103;DHT22;69760;49.380;8.998;2023-11-22T01:04:05;6.40;99.90
26103;DHT22;69760;49.380;8.998;2023-11-22T01:06:32;6.30;99.90
26103;DHT22;69760;49.380;8.998;2023-11-22T01:08:58;6.30;99.90
26103;DHT22;69760;49.380;8.998;2023-11-22T01:11:24;6.30;99.90
26103;DHT22;69760;49.380;8.998;2023-11-22T01:13:49;6.20;99.90
26103;DHT22;69760;49.380;8.998;2023-11-22T01:16:15;6.20;99.90
26103;DHT22;69760;49.380;8.998;2023-11-22T01:18:41;6.10;99.90
26103;DHT22;69760;49.380;8.998;2023-11-22T01:21:07;6.20;99.90
26103;DHT22;69760;49.380;8.998;2023-11-22T01:23:33;6.20;99.90
26103;DHT22;69760;49.380;8.998;2023-11-22T01:25:59;6.10;99.90
26103;DHT22;69760;49.380;8.998;2023-11-22T01:28:26;6.10;99.90
26103;DHT22;69760;49.380;8.998;2023-11-22T01:30:55;6.10;99.90
26103;DHT22;69760;49.380;8.998;2023-11-22T01:33:23;6.10;99.90
26103;DHT22;69760;49.380;8.998;2023-11-22T01:35:49;6.00;99.90
26103;DHT22;69760;49.380;8.998;2023-11-22T01:38:15;6.10;99.90
26103;DHT22;69760;49.380;8.998;2023-11-22T01:40:45;6.10;99.90
26103;DHT22;69760;49.380;8.998;2023-11-22T01:43:18;6.10;99.90
26103;DHT22;69760;49.380;8.998;2023-11-22T01:45:44;6.10;99.90
26103;DHT22;69760;49.380;8.998;2023-11-22T01:48:12;6.20;99.90
26103;DHT22;69760;49.380;8.998;2023-11-22T01:50:39;6.10;99.90
26103;DHT22;69760;49.380;8.998;2023-11-22T01:53:14;5.90;99.90
26103;DHT22;69760;49.380;8.998;2023-11-22T01:55:43;5.80;99.90
26103;DHT22;69760;49.380;8.998;2023-11-22T01:58:08;5.70;99.90
26103;DHT22;69760;49.380;8.998;2023-11-22T02:00:54;5.60;99.90
26103;DHT22;69760;49.380;8.998;2023-11-22T02:03:20;5.60;99.90
26103;DHT22;69760;49.380;8.998;2023-11-22T02:05:46;5.50;99.90
26103;DHT22;69760;49.380;8.998;2023-11-22T02:08:12;5.50;99.90
26103;DHT22;69760;49.380;8.998;2023-11-22T02:10:39;5.50;99.90
26103;DHT22;69760;49.380;8.998;2023-11-22T02:13:05;5.40;99.90
26103;DHT22;69760;49.380;8.998;2023-11-22T02:15:36;5.50;99.90
26103;DHT22;69760;49.380;8.998;2023-11-22T02:18:03;5.50;99.90
26103;DHT22;69760;49.380;8.998;2023-11-22T02:20:30;5.50;99.90
26103;DHT22;69760;49.380;8.998;2023-11-22T02:22:56;5.50;99.90
26103;DHT22;69760;49.380;8.998;2023-11-22T02:25:22;5.60;99.90
26103;DHT22;69760;49.380;8.998;2023-11-22T02:27:48;5.60;99.90
26103;DHT22;69760;49.380;8.998;2023-11-22T02:30:13;5.70;99.90
26103;DHT22;69760;49.380;8.998;2023-11-22T02:32:39;5.80;99.90
26103;DHT22;69760;49.380;8.998;2023-11-22T02:35:05;5.80;99.90
26103;DHT22;69760;49.380;8.998;2023-11-22T02:37:36;5.80;99.90
26103;DHT22;69760;49.380;8.998;2023-11-22T02:42:34;5.90;99.90
26103;DHT22;69760;49.380;8.998;2023-11-22T02:45:00;5.90;99.90
26103;DHT22;69760;49.380;8.998;2023-11-22T02:47:25;5.90;99.90
26103;DHT22;69760;49.380;8.998;2023-11-22T02:49:51;5.90;99.90
26103;DHT22;69760;49.380;8.998;2023-11-22T02:52:17;6.00;99.90
26103;DHT22;69760;49.380;8.998;2023-11-22T02:54:43;5.90;99.90
26103;DHT22;69760;49.380;8.998;2023-11-22T02:57:11;5.80;99.90
26103;DHT22;69760;49.380;8.998;2023-11-22T02:59:36;5.70;99.90
26103;DHT22;69760;49.380;8.998;2023-11-22T03:02:02;5.60;99.90
26103;DHT22;69760;49.380;8.998;2023-11-22T03:04:28;5.70;99.90
26103;DHT22;69760;49.380;8.998;2023-11-22T03:06:53;5.70;99.90
26103;DHT22;69760;49.380;8.998;2023-11-22T03:09:20;5.70;99.90
26103;DHT22;69760;49.380;8.998;2023-11-22T03:11:48;5.80;99.90
26103;DHT22;69760;49.380;8.998;2023-11-22T03:14:13;5.80;99.90
26103;DHT22;69760;49.380;8.998;2023-11-22T03:16:39;5.80;99.90
26103;DHT22;69760;49.380;8.998;2023-11-22T03:19:05;5.70;99.90
26103;DHT22;69760;49.380;8.998;2023-11-22T03:21:32;5.70;99.90
26103;DHT22;69760;49.380;8.998;2023-11-22T03:23:57;5.70;99.90
26103;DHT22;69760;49.380;8.998;2023-11-22T03:26:25;5.70;99.90
26103;DHT22;69760;49.380;8.998;2023-11-22T03:28:51;5.70;99.90
26103;DHT22;69760;49.380;8.998;2023-11-22T03:31:16;5.70;99.90
26103;DHT22;69760;49.380;8.998;2023-11-22T03:33:42;5.70;99.90
26103;DHT22;69760;49.380;8.998;2023-11-22T03:36:08;5.70;99.90
26103;DHT22;69760;49.380;8.998;2023-11-22T03:38:36;5.60;99.90
26103;DHT22;69760;49.380;8.998;2023-11-22T03:41:02;5.50;99.90
26103;DHT22;69760;49.380;8.998;2023-11-22T03:43:27;5.50;99.90
26103;DHT22;69760;49.380;8.998;2023-11-22T03:45:53;5.50;99.90
26103;DHT22;69760;49.380;8.998;2023-11-22T03:48:18;5.50;99.90
26103;DHT22;69760;49.380;8.998;2023-11-22T03:50:44;5.50;99.90
26103;DHT22;69760;49.380;8.998;2023-11-22T03:53:09;5.50;99.90
26103;DHT22;69760;49.380;8.998;2023-11-22T03:55:35;5.60;99.90
26103;DHT22;69760;49.380;8.998;2023-11-22T03:58:00;5.50;99.90
26103;DHT22;69760;49.380;8.998;2023-11-22T04:00:26;5.40;99.90
26103;DHT22;69760;49.380;8.998;2023-11-22T04:02:52;5.40;99.90
26103;DHT22;69760;49.380;8.998;2023-11-22T04:05:19;5.40;99.90
26103;DHT22;69760;49.380;8.998;2023-11-22T04:07:45;5.30;99.90
26103;DHT22;69760;49.380;8.998;2023-11-22T04:10:11;5.30;99.90
26103;DHT22;69760;49.380;8.998;2023-11-22T04:12:37;5.20;99.90
26103;DHT22;69760;49.380;8.998;2023-11-22T04:15:03;5.20;99.90
26103;DHT22;69760;49.380;8.998;2023-11-22T04:17:29;5.10;99.90
26103;DHT22;69760;49.380;8.998;2023-11-22T04:19:54;5.10;99.90
26103;DHT22;69760;49.380;8.998;2023-11-22T04:22:20;5.10;99.90
26103;DHT22;69760;49.380;8.998;2023-11-22T04:24:45;5.00;99.90
26103;DHT22;69760;49.380;8.998;2023-11-22T04:27:11;5.00;99.90
26103;DHT22;69760;49.380;8.998;2023-11-22T04:29:37;4.90;99.90
26103;DHT22;69760;49.380;8.998;2023-11-22T04:32:02;4.90;99.90
26103;DHT22;69760;49.380;8.998;2023-11-22T04:34:28;4.90;99.90
26103;DHT22;69760;49.380;8.998;2023-11-22T04:36:53;4.90;99.90
26103;DHT22;69760;49.380;8.998;2023-11-22T04:39:19;4.80;99.90
26103;DHT22;69760;49.380;8.998;2023-11-22T04:41:45;4.80;99.90
26103;DHT22;69760;49.380;8.998;2023-11-22T04:44:10;4.70;99.90
26103;DHT22;69760;49.380;8.998;2023-11-22T04:46:36;4.60;99.90
26103;DHT22;69760;49.380;8.998;2023-11-22T04:49:01;4.50;99.90
26103;DHT22;69760;49.380;8.998;2023-11-22T04:51:27;4.50;99.90
26103;DHT22;69760;49.380;8.998;2023-11-22T04:53:54;4.40;99.90
26103;DHT22;69760;49.380;8.998;2023-11-22T04:56:20;4.40;99.90
26103;DHT22;69760;49.380;8.998;2023-11-22T04:58:45;4.40;99.90
26103;DHT22;69760;49.380;8.998;2023-11-22T05:01:11;4.20;99.90
26103;DHT22;69760;49.380;8.998;2023-11-22T05:03:37;4.20;99.90
26103;DHT22;69760;49.380;8.998;2023-11-22T05:06:03;4.10;99.90
26103;DHT22;69760;49.380;8.998;2023-11-22T05:08:29;4.10;99.90
26103;DHT22;69760;49.380;8.998;2023-11-22T05:10:55;4.00;99.90
26103;DHT22;69760;49.380;8.998;2023-11-22T05:13:21;4.00;99.90
26103;DHT22;69760;49.380;8.998;2023-11-22T05:15:47;4.00;99.90
26103;DHT22;69760;49.380;8.998;2023-11-22T05:18:12;4.00;99.90
26103;DHT22;69760;49.380;8.998;2023-11-22T05:20:38;4.00;99.90
26103;DHT22;69760;49.380;8.998;2023-11-22T05:23:03;4.00;99.90
26103;DHT22;69760;49.380;8.998;2023-11-22T05:25:29;3.90;99.90
26103;DHT22;69760;49.380;8.998;2023-11-22T05:27:55;3.80;99.90
26103;DHT22;69760;49.380;8.998;2023-11-22T05:30:21;3.80;99.90
26103;DHT22;69760;49.380;8.998;2023-11-22T05:32:48;3.90;99.90
26103;DHT22;69760;49.380;8.998;2023-11-22T05:35:14;3.90;99.90
26103;DHT22;69760;49.380;8.998;2023-11-22T05:37:40;3.80;99.90
26103;DHT22;69760;49.380;8.998;2023-11-22T05:40:06;3.70;99.90
26103;DHT22;69760;49.380;8.998;2023-11-22T05:42:35;3.70;99.90
26103;DHT22;69760;49.380;8.998;2023-11-22T05:45:01;3.70;99.90
26103;DHT22;69760;49.380;8.998;2023-11-22T05:47:27;3.70;99.90
26103;DHT22;69760;49.380;8.998;2023-11-22T05:49:52;3.70;99.90
26103;DHT22;69760;49.380;8.998;2023-11-22T05:52:18;3.70;99.90
26103;DHT22;69760;49.380;8.998;2023-11-22T05:54:45;3.60;99.90
26103;DHT22;69760;49.380;8.998;2023-11-22T05:57:10;3.60;99.90
26103;DHT22;69760;49.380;8.998;2023-11-22T05:59:36;3.60;99.90
26103;DHT22;69760;49.380;8.998;2023-11-22T06:02:01;3.40;99.90
26103;DHT22;69760;49.380;8.998;2023-11-22T06:04:27;3.30;99.90
26103;DHT22;69760;49.380;8.998;2023-11-22T06:06:53;3.20;99.90
26103;DHT22;69760;49.380;8.998;2023-11-22T06:09:18;3.20;99.90
26103;DHT22;69760;49.380;8.998;2023-11-22T06:11:44;3.10;99.90
26103;DHT22;69760;49.380;8.998;2023-11-22T06:14:09;3.10;99.90
26103;DHT22;69760;49.380;8.998;2023-11-22T06:16:35;3.10;99.90
26103;DHT22;69760;49.380;8.998;2023-11-22T06:19:00;3.10;99.90
26103;DHT22;69760;49.380;8.998;2023-11-22T06:21:26;3.00;99.90
26103;DHT22;69760;49.380;8.998;2023-11-22T06:23:53;2.90;99.90
26103;DHT22;69760;49.380;8.998;2023-11-22T06:26:20;2.90;99.90
26103;DHT22;69760;49.380;8.998;2023-11-22T06:28:46;2.90;99.90
26103;DHT22;69760;49.380;8.998;2023-11-22T06:31:14;2.90;99.90
26103;DHT22;69760;49.380;8.998;2023-11-22T06:33:40;2.90;99.90
26103;DHT22;69760;49.380;8.998;2023-11-22T06:36:05;2.90;99.90
26103;DHT22;69760;49.380;8.998;2023-11-22T06:38:31;2.90;99.90
26103;DHT22;69760;49.380;8.998;2023-11-22T06:40:57;2.90;99.90
26103;DHT22;69760;49.380;8.998;2023-11-22T06:43:22;2.90;99.90
26103;DHT22;69760;49.380;8.998;2023-11-22T06:45:48;2.90;99.90
26103;DHT22;69760;49.380;8.998;2023-11-22T06:48:14;2.90;99.90
26103;DHT22;69760;49.380;8.998;2023-11-22T06:50:39;2.80;99.90
26103;DHT22;69760;49.380;8.998;2023-11-22T06:53:05;2.80;99.90
26103;DHT22;69760;49.380;8.998;2023-11-22T06:55:31;2.70;99.90
26103;DHT22;69760;49.380;8.998;2023-11-22T06:57:58;2.80;99.90
26103;DHT22;69760;49.380;8.998;2023-11-22T07:00:24;2.80;99.90
26103;DHT22;69760;49.380;8.998;2023-11-22T07:02:51;2.80;99.90
26103;DHT22;69760;49.380;8.998;2023-11-22T07:05:17;2.90;99.90
26103;DHT22;69760;49.380;8.998;2023-11-22T07:07:42;2.90;99.90
26103;DHT22;69760;49.380;8.998;2023-11-22T07:10:08;2.90;99.90
26103;DHT22;69760;49.380;8.998;2023-11-22T07:12:34;2.90;99.90
26103;DHT22;69760;49.380;8.998;2023-11-22T07:15:00;3.00;99.90
26103;DHT22;69760;49.380;8.998;2023-11-22T07:17:26;3.00;99.90
26103;DHT22;69760;49.380;8.998;2023-11-22T07:19:54;3.10;99.90
26103;DHT22;69760;49.380;8.998;2023-11-22T07:22:20;3.10;99.90
26103;DHT22;69760;49.380;8.998;2023-11-22T07:24:48;3.10;99.90
26103;DHT22;69760;49.380;8.998;2023-11-22T07:27:16;3.00;99.90
26103;DHT22;69760;49.380;8.998;2023-11-22T07:29:43;2.90;99.90
26103;DHT22;69760;49.380;8.998;2023-11-22T07:32:09;2.70;99.90
26103;DHT22;69760;49.380;8.998;2023-11-22T07:34:35;2.70;99.90
26103;DHT22;69760;49.380;8.998;2023-11-22T07:37:01;2.70;99.90
26103;DHT22;69760;49.380;8.998;2023-11-22T07:39:27;2.70;99.90
26103;DHT22;69760;49.380;8.998;2023-11-22T07:41:54;2.70;99.90
26103;DHT22;69760;49.380;8.998;2023-11-22T07:44:20;2.70;99.90
26103;DHT22;69760;49.380;8.998;2023-11-22T07:46:47;2.80;99.90
26103;DHT22;69760;49.380;8.998;2023-11-22T07:49:12;2.70;99.90
26103;DHT22;69760;49.380;8.998;2023-11-22T07:51:39;2.80;99.90
26103;DHT22;69760;49.380;8.998;2023-11-22T07:54:05;2.80;99.90
26103;DHT22;69760;49.380;8.998;2023-11-22T07:56:31;2.90;99.90
26103;DHT22;69760;49.380;8.998;2023-11-22T07:58:58;3.00;99.90
26103;DHT22;69760;49.380;8.998;2023-11-22T08:01:24;3.00;99.90
26103;DHT22;69760;49.380;8.998;2023-11-22T08:03:51;2.90;99.90
26103;DHT22;69760;49.380;8.998;2023-11-22T08:06:17;2.90;99.90
26103;DHT22;69760;49.380;8.998;2023-11-22T08:08:43;2.90;99.90
26103;DHT22;69760;49.380;8.998;2023-11-22T08:11:11;3.00;99.90
26103;DHT22;69760;49.380;8.998;2023-11-22T08:13:41;3.00;99.90
26103;DHT22;69760;49.380;8.998;2023-11-22T08:16:08;3.10;99.90
26103;DHT22;69760;49.380;8.998;2023-11-22T08:18:34;3.10;99.90
26103;DHT22;69760;49.380;8.998;2023-11-22T08:21:00;3.10;99.90
26103;DHT22;69760;49.380;8.998;2023-11-22T08:23:25;3.10;99.90
26103;DHT22;69760;49.380;8.998;2023-11-22T08:25:52;3.10;99.90
26103;DHT22;69760;49.380;8.998;2023-11-22T08:28:18;3.10;99.90
26103;DHT22;69760;49.380;8.998;2023-11-22T08:30:44;3.10;99.90
26103;DHT22;69760;49.380;8.998;2023-11-22T08:33:10;3.20;99.90
26103;DHT22;69760;49.380;8.998;2023-11-22T08:35:35;3.20;99.90
26103;DHT22;69760;49.380;8.998;2023-11-22T08:38:01;3.10;99.90
26103;DHT22;69760;49.380;8.998;2023-11-22T08:40:28;3.10;99.90
26103;DHT22;69760;49.380;8.998;2023-11-22T08:42:54;3.10;99.90
26103;DHT22;69760;49.380;8.998;2023-11-22T08:45:20;3.20;99.90
26103;DHT22;69760;49.380;8.998;2023-11-22T08:47:46;3.10;99.90
26103;DHT22;69760;49.380;8.998;2023-11-22T08:50:12;3.10;99.90
26103;DHT22;69760;49.380;8.998;2023-11-22T08:52:38;3.10;99.90
26103;DHT22;69760;49.380;8.998;2023-11-22T08:55:05;3.10;99.90
26103;DHT22;69760;49.380;8.998;2023-11-22T08:57:35;3.10;99.90
26103;DHT22;69760;49.380;8.998;2023-11-22T09:00:00;3.20;99.90
26103;DHT22;69760;49.380;8.998;2023-11-22T09:02:32;3.30;99.90
26103;DHT22;69760;49.380;8.998;2023-11-22T09:04:58;3.30;99.90
26103;DHT22;69760;49.380;8.998;2023-11-22T09:07:24;3.30;99.90
26103;DHT22;69760;49.380;8.998;2023-11-22T09:09:49;3.40;99.90
26103;DHT22;69760;49.380;8.998;2023-11-22T09:12:17;3.50;99.90
26103;DHT22;69760;49.380;8.998;2023-11-22T09:14:45;3.60;99.90
26103;DHT22;69760;49.380;8.998;2023-11-22T09:17:11;3.60;99.90
26103;DHT22;69760;49.380;8.998;2023-11-22T09:19:36;3.70;99.90
26103;DHT22;69760;49.380;8.998;2023-11-22T09:22:03;3.70;99.90
26103;DHT22;69760;49.380;8.998;2023-11-22T09:24:30;3.70;99.90
26103;DHT22;69760;49.380;8.998;2023-11-22T09:26:56;3.80;99.90
26103;DHT22;69760;49.380;8.998;2023-11-22T09:29:21;3.80;99.90
26103;DHT22;69760;49.380;8.998;2023-11-22T09:31:47;3.90;99.90
26103;DHT22;69760;49.380;8.998;2023-11-22T09:34:12;3.90;99.90
26103;DHT22;69760;49.380;8.998;2023-11-22T09:36:39;4.00;99.90
26103;DHT22;69760;49.380;8.998;2023-11-22T09:39:05;4.00;99.90
26103;DHT22;69760;49.380;8.998;2023-11-22T09:41:37;4.10;99.90
26103;DHT22;69760;49.380;8.998;2023-11-22T09:44:03;4.20;99.90
26103;DHT22;69760;49.380;8.998;2023-11-22T09:46:30;4.20;99.90
26103;DHT22;69760;49.380;8.998;2023-11-22T09:48:57;4.30;99.90
26103;DHT22;69760;49.380;8.998;2023-11-22T09:51:29;4.30;99.90
26103;DHT22;69760;49.380;8.998;2023-11-22T09:54:04;4.30;99.90
26103;DHT22;69760;49.380;8.998;2023-11-22T09:56:30;4.40;99.90
26103;DHT22;69760;49.380;8.998;2023-11-22T09:59:00;4.40;99.90
26103;DHT22;69760;49.380;8.998;2023-11-22T10:01:27;4.50;99.90
26103;DHT22;69760;49.380;8.998;2023-11-22T10:04:02;4.60;99.90
26103;DHT22;69760;49.380;8.998;2023-11-22T10:06:28;4.60;99.90
26103;DHT22;69760;49.380;8.998;2023-11-22T10:08:58;4.70;99.90
26103;DHT22;69760;49.380;8.998;2023-11-22T10:11:25;4.70;99.90
26103;DHT22;69760;49.380;8.998;2023-11-22T10:13:51;4.80;99.90
26103;DHT22;69760;49.380;8.998;2023-11-22T10:16:18;4.80;99.90
26103;DHT22;69760;49.380;8.998;2023-11-22T10:18:48;4.80;99.90
26103;DHT22;69760;49.380;8.998;2023-11-22T10:21:28;4.80;99.90
26103;DHT22;69760;49.380;8.998;2023-11-22T10:23:56;4.90;99.90
26103;DHT22;69760;49.380;8.998;2023-11-22T10:26:22;4.90;99.90
26103;DHT22;69760;49.380;8.998;2023-11-22T10:28:52;4.90;99.90
26103;DHT22;69760;49.380;8.998;2023-11-22T10:31:18;4.90;99.90
26103;DHT22;69760;49.380;8.998;2023-11-22T10:33:44;4.90;99.90
26103;DHT22;69760;49.380;8.998;2023-11-22T10:36:10;4.90;99.90
26103;DHT22;69760;49.380;8.998;2023-11-22T10:38:38;4.80;99.90
26103;DHT22;69760;49.380;8.998;2023-11-22T10:41:08;4.60;99.90
26103;DHT22;69760;49.380;8.998;2023-11-22T10:43:37;4.60;99.90
26103;DHT22;69760;49.380;8.998;2023-11-22T10:46:03;4.50;99.90
26103;DHT22;69760;49.380;8.998;2023-11-22T10:48:31;4.40;99.90
26103;DHT22;69760;49.380;8.998;2023-11-22T10:51:01;4.50;99.90
26103;DHT22;69760;49.380;8.998;2023-11-22T10:53:37;4.60;99.90
26103;DHT22;69760;49.380;8.998;2023-11-22T10:56:15;4.70;99.90
26103;DHT22;69760;49.380;8.998;2023-11-22T10:58:47;4.90;99.90
26103;DHT22;69760;49.380;8.998;2023-11-22T11:01:18;5.00;99.90
26103;DHT22;69760;49.380;8.998;2023-11-22T11:04:23;5.10;99.90
26103;DHT22;69760;49.380;8.998;2023-11-22T11:06:53;5.30;99.90
26103;DHT22;69760;49.380;8.998;2023-11-22T11:09:19;5.40;99.70
26103;DHT22;69760;49.380;8.998;2023-11-22T11:11:47;5.60;99.40
26103;DHT22;69760;49.380;8.998;2023-11-22T11:14:13;5.70;99.00
26103;DHT22;69760;49.380;8.998;2023-11-22T11:16:41;5.80;97.90
26103;DHT22;69760;49.380;8.998;2023-11-22T11:19:13;5.70;98.60
26103;DHT22;69760;49.380;8.998;2023-11-22T11:21:40;5.70;97.90
26103;DHT22;69760;49.380;8.998;2023-11-22T11:24:06;5.70;98.80
26103;DHT22;69760;49.380;8.998;2023-11-22T11:26:32;5.70;99.60
26103;DHT22;69760;49.380;8.998;2023-11-22T11:29:00;5.60;99.40
26103;DHT22;69760;49.380;8.998;2023-11-22T11:31:31;5.60;99.00
26103;DHT22;69760;49.380;8.998;2023-11-22T11:33:58;5.60;98.40
26103;DHT22;69760;49.380;8.998;2023-11-22T11:36:26;5.50;98.60
26103;DHT22;69760;49.380;8.998;2023-11-22T11:38:58;5.60;99.20
26103;DHT22;69760;49.380;8.998;2023-11-22T11:41:30;5.60;99.90
26103;DHT22;69760;49.380;8.998;2023-11-22T11:43:57;5.60;99.90
26103;DHT22;69760;49.380;8.998;2023-11-22T11:46:23;5.60;99.80
26103;DHT22;69760;49.380;8.998;2023-11-22T11:48:52;5.50;98.90
26103;DHT22;69760;49.380;8.998;2023-11-22T11:51:26;5.60;98.60
26103;DHT22;69760;49.380;8.998;2023-11-22T11:53:53;5.60;98.50
26103;DHT22;69760;49.380;8.998;2023-11-22T11:56:19;5.70;97.90
26103;DHT22;69760;49.380;8.998;2023-11-22T11:58:46;5.80;97.90
26103;DHT22;69760;49.380;8.998;2023-11-22T12:01:16;5.80;97.00
26103;DHT22;69760;49.380;8.998;2023-11-22T12:03:45;5.90;96.80
26103;DHT22;69760;49.380;8.998;2023-11-22T12:06:14;5.90;96.90
26103;DHT22;69760;49.380;8.998;2023-11-22T12:08:40;5.80;97.20
26103;DHT22;69760;49.380;8.998;2023-11-22T12:11:06;5.80;97.60
26103;DHT22;69760;49.380;8.998;2023-11-22T12:13:37;5.80;98.00
26103;DHT22;69760;49.380;8.998;2023-11-22T12:16:05;5.80;97.30
26103;DHT22;69760;49.380;8.998;2023-11-22T12:21:05;5.70;97.20
26103;DHT22;69760;49.380;8.998;2023-11-22T12:23:32;5.70;97.10
26103;DHT22;69760;49.380;8.998;2023-11-22T12:25:58;5.70;96.50
26103;DHT22;69760;49.380;8.998;2023-11-22T12:28:26;5.70;96.70
26103;DHT22;69760;49.380;8.998;2023-11-22T12:30:52;5.70;96.30
26103;DHT22;69760;49.380;8.998;2023-11-22T12:33:18;5.60;96.50
26103;DHT22;69760;49.380;8.998;2023-11-22T12:35:48;5.60;96.50
26103;DHT22;69760;49.380;8.998;2023-11-22T12:38:14;5.50;96.70
26103;DHT22;69760;49.380;8.998;2023-11-22T12:40:44;5.60;96.40
26103;DHT22;69760;49.380;8.998;2023-11-22T12:43:12;5.60;96.80
26103;DHT22;69760;49.380;8.998;2023-11-22T12:45:39;5.50;96.80
26103;DHT22;69760;49.380;8.998;2023-11-22T12:48:24;5.60;97.50
26103;DHT22;69760;49.380;8.998;2023-11-22T12:50:51;5.50;96.50
26103;DHT22;69760;49.380;8.998;2023-11-22T12:53:17;5.50;96.60
26103;DHT22;69760;49.380;8.998;2023-11-22T12:55:45;5.50;96.70
26103;DHT22;69760;49.380;8.998;2023-11-22T12:58:12;5.50;96.80
26103;DHT22;69760;49.380;8.998;2023-11-22T13:00:39;5.50;96.90
26103;DHT22;69760;49.380;8.998;2023-11-22T13:03:08;5.40;96.60
26103;DHT22;69760;49.380;8.998;2023-11-22T13:05:38;5.40;96.50
26103;DHT22;69760;49.380;8.998;2023-11-22T13:08:05;5.50;97.00
26103;DHT22;69760;49.380;8.998;2023-11-22T13:10:31;5.50;96.40
26103;DHT22;69760;49.380;8.998;2023-11-22T13:12:57;5.50;96.80
26103;DHT22;69760;49.380;8.998;2023-11-22T13:15:23;5.50;96.60
26103;DHT22;69760;49.380;8.998;2023-11-22T13:17:54;5.50;96.70
26103;DHT22;69760;49.380;8.998;2023-11-22T13:20:21;5.50;97.30
26103;DHT22;69760;49.380;8.998;2023-11-22T13:22:48;5.60;96.80
26103;DHT22;69760;49.380;8.998;2023-11-22T13:25:14;5.60;96.70
26103;DHT22;69760;49.380;8.998;2023-11-22T13:27:40;5.60;96.30
26103;DHT22;69760;49.380;8.998;2023-11-22T13:30:07;5.70;96.60
26103;DHT22;69760;49.380;8.998;2023-11-22T13:32:33;5.70;96.70
26103;DHT22;69760;49.380;8.998;2023-11-22T13:34:58;5.80;96.50
26103;DHT22;69760;49.380;8.998;2023-11-22T13:37:24;5.70;96.80
26103;DHT22;69760;49.380;8.998;2023-11-22T13:39:50;5.80;96.90
26103;DHT22;69760;49.380;8.998;2023-11-22T13:42:16;5.80;96.50
26103;DHT22;69760;49.380;8.998;2023-11-22T13:44:42;5.80;96.70
26103;DHT22;69760;49.380;8.998;2023-11-22T13:47:10;5.80;96.20
26103;DHT22;69760;49.380;8.998;2023-11-22T13:49:35;5.80;95.90
26103;DHT22;69760;49.380;8.998;2023-11-22T13:52:02;5.80;95.60
26103;DHT22;69760;49.380;8.998;2023-11-22T13:54:28;5.80;95.60
26103;DHT22;69760;49.380;8.998;2023-11-22T13:56:53;5.60;95.50
26103;DHT22;69760;49.380;8.998;2023-11-22T13:59:19;5.60;95.70
26103;DHT22;69760;49.380;8.998;2023-11-22T14:01:45;5.50;95.90
26103;DHT22;69760;49.380;8.998;2023-11-22T14:04:11;5.50;96.20
26103;DHT22;69760;49.380;8.998;2023-11-22T14:06:37;5.50;96.10
26103;DHT22;69760;49.380;8.998;2023-11-22T14:09:02;5.50;95.90
26103;DHT22;69760;49.380;8.998;2023-11-22T14:11:28;5.50;95.80
26103;DHT22;69760;49.380;8.998;2023-11-22T14:13:55;5.50;96.00
26103;DHT22;69760;49.380;8.998;2023-11-22T14:16:20;5.50;95.80
26103;DHT22;69760;49.380;8.998;2023-11-22T14:18:46;5.50;96.30
26103;DHT22;69760;49.380;8.998;2023-11-22T14:21:11;5.50;96.30
26103;DHT22;69760;49.380;8.998;2023-11-22T14:23:37;5.50;96.10
26103;DHT22;69760;49.380;8.998;2023-11-22T14:26:03;5.60;96.20
26103;DHT22;69760;49.380;8.998;2023-11-22T14:28:28;5.60;95.80
26103;DHT22;69760;49.380;8.998;2023-11-22T14:30:55;5.60;95.80
26103;DHT22;69760;49.380;8.998;2023-11-22T14:33:21;5.50;95.80
26103;DHT22;69760;49.380;8.998;2023-11-22T14:35:46;5.50;96.20
26103;DHT22;69760;49.380;8.998;2023-11-22T14:38:12;5.40;96.90
26103;DHT22;69760;49.380;8.998;2023-11-22T14:40:39;5.30;97.40
26103;DHT22;69760;49.380;8.998;2023-11-22T14:43:05;5.20;97.50
26103;DHT22;69760;49.380;8.998;2023-11-22T14:45:31;5.10;97.80
26103;DHT22;69760;49.380;8.998;2023-11-22T14:47:58;5.10;98.50
26103;DHT22;69760;49.380;8.998;2023-11-22T14:50:24;5.10;98.40
26103;DHT22;69760;49.380;8.998;2023-11-22T14:52:52;5.10;97.50
26103;DHT22;69760;49.380;8.998;2023-11-22T14:55:18;5.10;97.60
26103;DHT22;69760;49.380;8.998;2023-11-22T14:57:49;5.10;98.50
26103;DHT22;69760;49.380;8.998;2023-11-22T15:00:16;5.10;98.70
26103;DHT22;69760;49.380;8.998;2023-11-22T15:02:42;5.10;98.50
26103;DHT22;69760;49.380;8.998;2023-11-22T15:05:21;5.20;98.30
26103;DHT22;69760;49.380;8.998;2023-11-22T15:07:47;5.20;98.10
26103;DHT22;69760;49.380;8.998;2023-11-22T15:10:16;5.20;98.00
26103;DHT22;69760;49.380;8.998;2023-11-22T15:12:42;5.20;97.70
26103;DHT22;69760;49.380;8.998;2023-11-22T15:15:08;5.30;97.80
26103;DHT22;69760;49.380;8.998;2023-11-22T15:17:34;5.30;97.30
26103;DHT22;69760;49.380;8.998;2023-11-22T15:20:00;5.40;97.20
26103;DHT22;69760;49.380;8.998;2023-11-22T15:22:25;5.40;97.20
26103;DHT22;69760;49.380;8.998;2023-11-22T15:24:51;5.30;97.40
26103;DHT22;69760;49.380;8.998;2023-11-22T15:27:17;5.30;97.30
26103;DHT22;69760;49.380;8.998;2023-11-22T15:29:43;5.30;97.30
26103;DHT22;69760;49.380;8.998;2023-11-22T15:32:08;5.20;98.00
26103;DHT22;69760;49.380;8.998;2023-11-22T15:34:34;5.20;98.60
26103;DHT22;69760;49.380;8.998;2023-11-22T15:36:59;5.20;98.90
26103;DHT22;69760;49.380;8.998;2023-11-22T15:39:25;5.10;99.20
26103;DHT22;69760;49.380;8.998;2023-11-22T15:41:52;5.10;99.40
26103;DHT22;69760;49.380;8.998;2023-11-22T15:44:17;5.10;99.90
26103;DHT22;69760;49.380;8.998;2023-11-22T15:46:43;5.10;99.90